Sichem Orchid — 9HNC9 — position and weather

sailwx.info

Track history (hours):
 
Tides and Currents Weather Stations Pressure Air Temp Water Temp Dewpoint Dewpoint Depression Visibility Wind Speed Wind Dir Waves Ship Positions

Sichem Orchid

Last reported at 2017-Dec-07 04:14 UTC. Time now 2017-Dec-14 02:41 UTC.
Position N 39°03' E 002°28'.

Length 115 m; draft 6.2 m.

Type: Ship. MMSI: 249213000.

Date/timePositionNaut miles runAvg speedWind from/ knotsBaromVisibWave heightAir tempDewpointWater temp
2017-Dec-07 04:14N 39°03' E 002°28'313.2
2017-Dec-07 04:00N 39°02' E 002°32'713.1
2017-Dec-07 03:30N 38°60' E 002°40'2012.8
2017-Dec-07 01:58N 38°55' E 003°04'  
2017-Dec-03 11:34N 40°55' E 001°54'111.5
2017-Dec-03 11:30N 40°55' E 001°52'711.4
2017-Dec-03 10:55N 40°56' E 001°44'511.4
2017-Dec-03 10:30N 40°56' E 001°37'  
2017-Dec-01 06:22N 37°45' W 000°21'612.4
2017-Dec-01 05:52N 37°40' W 000°25'512.3
2017-Dec-01 05:30N 37°36' W 000°28'612.1
2017-Dec-01 05:00N 37°32' W 000°33'612.2
2017-Dec-01 04:29N 37°27' W 000°39'612.0
2017-Dec-01 04:00N 37°24' W 000°44'711.8
2017-Dec-01 03:26N 37°19' W 000°51'511.6
2017-Dec-01 03:00N 37°16' W 000°55'22011.7
2017-Nov-30 08:18N 35°60' W 005°12'516.3
2017-Nov-30 08:00N 35°59' W 005°18'815.7
2017-Nov-30 07:31N 35°57' W 005°27'26411.1
2017-Nov-29 07:41N 38°20' W 010°06'313.2
2017-Nov-29 07:29N 38°23' W 010°07'713.4
2017-Nov-29 06:59N 38°29' W 010°09'713.5
2017-Nov-29 06:30N 38°35' W 010°10'713.3
2017-Nov-29 06:00N 38°42' W 010°12'713.2
2017-Nov-29 05:28N 38°49' W 010°12'613.2
2017-Nov-29 05:00N 38°55' W 010°12'713.0
2017-Nov-29 04:30N 39°02' W 010°12'713.1
2017-Nov-29 04:00N 39°08' W 010°12'713.4
2017-Nov-29 03:28N 39°15' W 010°12'  
Track history (hours):
 
Tides and Currents Weather Stations Pressure Air Temp Water Temp Dewpoint Dewpoint Depression Visibility Wind Speed Wind Dir Waves Ship Positions

Sichem Orchid

Last reported at 2017-Dec-07 04:14 UTC. Time now 2017-Dec-14 02:41 UTC.
Position N 39°03' E 002°28'.

Length 115 m; draft 6.2 m.

Type: Ship. MMSI: 249213000.

Date/timePositionNaut miles runAvg speedWind from/ knotsBaromVisibWave heightAir tempDewpointWater temp
2017-Dec-07 04:14N 39°03' E 002°28'313.2
2017-Dec-07 04:00N 39°02' E 002°32'713.1
2017-Dec-07 03:30N 38°60' E 002°40'2012.8
2017-Dec-07 01:58N 38°55' E 003°04'  
2017-Dec-03 11:34N 40°55' E 001°54'111.5
2017-Dec-03 11:30N 40°55' E 001°52'711.4
2017-Dec-03 10:55N 40°56' E 001°44'511.4
2017-Dec-03 10:30N 40°56' E 001°37'  
2017-Dec-01 06:22N 37°45' W 000°21'612.4
2017-Dec-01 05:52N 37°40' W 000°25'512.3
2017-Dec-01 05:30N 37°36' W 000°28'612.1
2017-Dec-01 05:00N 37°32' W 000°33'612.2
2017-Dec-01 04:29N 37°27' W 000°39'612.0
2017-Dec-01 04:00N 37°24' W 000°44'711.8
2017-Dec-01 03:26N 37°19' W 000°51'511.6
2017-Dec-01 03:00N 37°16' W 000°55'22011.7
2017-Nov-30 08:18N 35°60' W 005°12'516.3
2017-Nov-30 08:00N 35°59' W 005°18'815.7
2017-Nov-30 07:31N 35°57' W 005°27'26411.1
2017-Nov-29 07:41N 38°20' W 010°06'313.2
2017-Nov-29 07:29N 38°23' W 010°07'713.4
2017-Nov-29 06:59N 38°29' W 010°09'713.5
2017-Nov-29 06:30N 38°35' W 010°10'713.3
2017-Nov-29 06:00N 38°42' W 010°12'713.2
2017-Nov-29 05:28N 38°49' W 010°12'613.2
2017-Nov-29 05:00N 38°55' W 010°12'713.0
2017-Nov-29 04:30N 39°02' W 010°12'713.1
2017-Nov-29 04:00N 39°08' W 010°12'713.4
2017-Nov-29 03:28N 39°15' W 010°12'  

Dump ship's entire track history